sensor_id;sensor_type;location;lat;lon;timestamp;P1;durP1;ratioP1;P2;durP2;ratioP2
13067;SDS011;6600;51.362;6.686;2023-08-06T00:01:37;1.00;;;0.93;;
13067;SDS011;6600;51.362;6.686;2023-08-06T00:04:02;2.20;;;1.67;;
13067;SDS011;6600;51.362;6.686;2023-08-06T00:06:28;1.67;;;1.20;;
13067;SDS011;6600;51.362;6.686;2023-08-06T00:08:53;2.47;;;1.50;;
13067;SDS011;6600;51.362;6.686;2023-08-06T00:11:19;1.20;;;1.10;;
13067;SDS011;6600;51.362;6.686;2023-08-06T00:13:45;1.50;;;1.30;;
13067;SDS011;6600;51.362;6.686;2023-08-06T00:16:11;3.67;;;1.40;;
13067;SDS011;6600;51.362;6.686;2023-08-06T00:18:37;1.50;;;1.40;;
13067;SDS011;6600;51.362;6.686;2023-08-06T00:21:03;1.73;;;1.30;;
13067;SDS011;6600;51.362;6.686;2023-08-06T00:23:28;2.27;;;1.53;;
13067;SDS011;6600;51.362;6.686;2023-08-06T00:25:53;2.43;;;1.30;;
13067;SDS011;6600;51.362;6.686;2023-08-06T00:28:19;2.70;;;1.47;;
13067;SDS011;6600;51.362;6.686;2023-08-06T00:30:44;1.53;;;1.37;;
13067;SDS011;6600;51.362;6.686;2023-08-06T00:33:09;1.07;;;0.97;;
13067;SDS011;6600;51.362;6.686;2023-08-06T00:35:35;1.50;;;1.00;;
13067;SDS011;6600;51.362;6.686;2023-08-06T00:38:00;3.00;;;1.30;;
13067;SDS011;6600;51.362;6.686;2023-08-06T00:40:25;1.70;;;1.57;;
13067;SDS011;6600;51.362;6.686;2023-08-06T00:42:53;1.67;;;1.57;;
13067;SDS011;6600;51.362;6.686;2023-08-06T00:45:18;1.43;;;0.90;;
13067;SDS011;6600;51.362;6.686;2023-08-06T00:47:44;1.43;;;1.20;;
13067;SDS011;6600;51.362;6.686;2023-08-06T00:50:10;2.03;;;1.40;;
13067;SDS011;6600;51.362;6.686;2023-08-06T00:52:36;1.17;;;1.07;;
13067;SDS011;6600;51.362;6.686;2023-08-06T00:55:02;1.40;;;1.03;;
13067;SDS011;6600;51.362;6.686;2023-08-06T00:57:27;1.30;;;1.20;;
13067;SDS011;6600;51.362;6.686;2023-08-06T00:59:53;1.53;;;1.13;;
13067;SDS011;6600;51.362;6.686;2023-08-06T01:02:19;4.03;;;1.53;;
13067;SDS011;6600;51.362;6.686;2023-08-06T01:04:44;3.73;;;1.40;;
13067;SDS011;6600;51.362;6.686;2023-08-06T01:09:37;1.40;;;1.20;;
13067;SDS011;6600;51.362;6.686;2023-08-06T01:12:25;1.73;;;1.40;;
13067;SDS011;6600;51.362;6.686;2023-08-06T01:15:13;1.80;;;1.17;;
13067;SDS011;6600;51.362;6.686;2023-08-06T01:17:44;2.33;;;1.20;;
13067;SDS011;6600;51.362;6.686;2023-08-06T01:20:10;1.47;;;1.17;;
13067;SDS011;6600;51.362;6.686;2023-08-06T01:22:36;1.30;;;1.20;;
13067;SDS011;6600;51.362;6.686;2023-08-06T01:25:01;1.33;;;1.23;;
13067;SDS011;6600;51.362;6.686;2023-08-06T01:27:30;1.57;;;1.20;;
13067;SDS011;6600;51.362;6.686;2023-08-06T01:30:06;2.37;;;1.23;;
13067;SDS011;6600;51.362;6.686;2023-08-06T01:33:02;2.20;;;0.90;;
13067;SDS011;6600;51.362;6.686;2023-08-06T01:35:29;1.90;;;1.17;;
13067;SDS011;6600;51.362;6.686;2023-08-06T01:37:55;2.67;;;1.30;;
13067;SDS011;6600;51.362;6.686;2023-08-06T01:40:21;3.07;;;1.53;;
13067;SDS011;6600;51.362;6.686;2023-08-06T01:42:47;2.27;;;1.03;;
13067;SDS011;6600;51.362;6.686;2023-08-06T01:45:12;0.93;;;0.93;;
13067;SDS011;6600;51.362;6.686;2023-08-06T01:47:38;1.70;;;1.60;;
13067;SDS011;6600;51.362;6.686;2023-08-06T01:50:03;1.30;;;1.00;;
13067;SDS011;6600;51.362;6.686;2023-08-06T01:52:29;1.57;;;1.13;;
13067;SDS011;6600;51.362;6.686;2023-08-06T01:54:54;2.67;;;1.40;;
13067;SDS011;6600;51.362;6.686;2023-08-06T01:57:20;2.90;;;1.10;;
13067;SDS011;6600;51.362;6.686;2023-08-06T01:59:45;2.17;;;1.30;;
13067;SDS011;6600;51.362;6.686;2023-08-06T02:02:11;1.00;;;0.90;;
13067;SDS011;6600;51.362;6.686;2023-08-06T02:04:37;1.10;;;0.90;;
13067;SDS011;6600;51.362;6.686;2023-08-06T02:07:02;1.30;;;1.20;;
13067;SDS011;6600;51.362;6.686;2023-08-06T02:09:27;1.43;;;1.00;;
13067;SDS011;6600;51.362;6.686;2023-08-06T02:11:53;3.13;;;1.57;;
13067;SDS011;6600;51.362;6.686;2023-08-06T02:14:18;1.23;;;1.03;;
13067;SDS011;6600;51.362;6.686;2023-08-06T02:16:43;1.13;;;1.00;;
13067;SDS011;6600;51.362;6.686;2023-08-06T02:19:08;1.23;;;1.10;;
13067;SDS011;6600;51.362;6.686;2023-08-06T02:21:34;2.73;;;1.63;;
13067;SDS011;6600;51.362;6.686;2023-08-06T02:23:59;1.50;;;1.20;;
13067;SDS011;6600;51.362;6.686;2023-08-06T02:26:24;1.97;;;1.30;;
13067;SDS011;6600;51.362;6.686;2023-08-06T02:28:50;2.73;;;1.50;;
13067;SDS011;6600;51.362;6.686;2023-08-06T02:31:15;0.80;;;0.80;;
13067;SDS011;6600;51.362;6.686;2023-08-06T02:33:40;2.00;;;1.33;;
13067;SDS011;6600;51.362;6.686;2023-08-06T02:36:06;1.43;;;1.00;;
13067;SDS011;6600;51.362;6.686;2023-08-06T02:38:32;2.13;;;1.33;;
13067;SDS011;6600;51.362;6.686;2023-08-06T02:40:57;1.10;;;1.00;;
13067;SDS011;6600;51.362;6.686;2023-08-06T02:43:23;1.33;;;1.03;;
13067;SDS011;6600;51.362;6.686;2023-08-06T02:45:48;1.80;;;1.40;;
13067;SDS011;6600;51.362;6.686;2023-08-06T02:48:14;1.97;;;1.30;;
13067;SDS011;6600;51.362;6.686;2023-08-06T02:50:40;1.30;;;1.20;;
13067;SDS011;6600;51.362;6.686;2023-08-06T02:53:06;2.30;;;1.20;;
13067;SDS011;6600;51.362;6.686;2023-08-06T02:55:32;1.67;;;1.20;;
13067;SDS011;6600;51.362;6.686;2023-08-06T02:57:59;2.80;;;1.60;;
13067;SDS011;6600;51.362;6.686;2023-08-06T03:00:24;1.77;;;1.50;;
13067;SDS011;6600;51.362;6.686;2023-08-06T03:02:50;1.20;;;1.10;;
13067;SDS011;6600;51.362;6.686;2023-08-06T03:05:15;1.20;;;1.10;;
13067;SDS011;6600;51.362;6.686;2023-08-06T03:07:41;1.57;;;1.20;;
13067;SDS011;6600;51.362;6.686;2023-08-06T03:10:06;0.87;;;0.87;;
13067;SDS011;6600;51.362;6.686;2023-08-06T03:12:32;1.77;;;1.43;;
13067;SDS011;6600;51.362;6.686;2023-08-06T03:14:57;1.40;;;1.10;;
13067;SDS011;6600;51.362;6.686;2023-08-06T03:17:22;2.10;;;1.33;;
13067;SDS011;6600;51.362;6.686;2023-08-06T03:19:47;1.13;;;1.10;;
13067;SDS011;6600;51.362;6.686;2023-08-06T03:22:13;2.63;;;1.40;;
13067;SDS011;6600;51.362;6.686;2023-08-06T03:24:38;1.10;;;1.00;;
13067;SDS011;6600;51.362;6.686;2023-08-06T03:27:04;1.33;;;1.23;;
13067;SDS011;6600;51.362;6.686;2023-08-06T03:29:29;1.30;;;1.13;;
13067;SDS011;6600;51.362;6.686;2023-08-06T03:31:54;1.73;;;1.20;;
13067;SDS011;6600;51.362;6.686;2023-08-06T03:34:20;1.10;;;1.10;;
13067;SDS011;6600;51.362;6.686;2023-08-06T03:36:45;1.20;;;1.10;;
13067;SDS011;6600;51.362;6.686;2023-08-06T03:39:10;1.60;;;1.07;;
13067;SDS011;6600;51.362;6.686;2023-08-06T03:41:36;1.40;;;1.30;;
13067;SDS011;6600;51.362;6.686;2023-08-06T03:44:01;1.43;;;1.03;;
13067;SDS011;6600;51.362;6.686;2023-08-06T03:46:28;1.33;;;1.10;;
13067;SDS011;6600;51.362;6.686;2023-08-06T03:48:54;1.50;;;1.10;;
13067;SDS011;6600;51.362;6.686;2023-08-06T03:51:19;1.17;;;1.07;;
13067;SDS011;6600;51.362;6.686;2023-08-06T03:53:44;1.07;;;0.93;;
13067;SDS011;6600;51.362;6.686;2023-08-06T03:56:10;2.00;;;1.37;;
13067;SDS011;6600;51.362;6.686;2023-08-06T03:58:35;1.03;;;0.87;;
13067;SDS011;6600;51.362;6.686;2023-08-06T04:01:01;1.37;;;1.03;;
13067;SDS011;6600;51.362;6.686;2023-08-06T04:03:27;4.13;;;1.43;;
13067;SDS011;6600;51.362;6.686;2023-08-06T04:05:53;3.30;;;1.10;;
13067;SDS011;6600;51.362;6.686;2023-08-06T04:08:19;1.80;;;1.47;;
13067;SDS011;6600;51.362;6.686;2023-08-06T04:10:44;1.17;;;1.07;;
13067;SDS011;6600;51.362;6.686;2023-08-06T04:13:10;1.20;;;1.10;;
13067;SDS011;6600;51.362;6.686;2023-08-06T04:15:35;2.47;;;1.20;;
13067;SDS011;6600;51.362;6.686;2023-08-06T04:18:00;1.83;;;1.27;;
13067;SDS011;6600;51.362;6.686;2023-08-06T04:20:26;1.17;;;1.07;;
13067;SDS011;6600;51.362;6.686;2023-08-06T04:22:53;1.50;;;1.00;;
13067;SDS011;6600;51.362;6.686;2023-08-06T04:25:19;1.20;;;1.10;;
13067;SDS011;6600;51.362;6.686;2023-08-06T04:27:49;2.67;;;1.00;;
13067;SDS011;6600;51.362;6.686;2023-08-06T04:30:14;1.13;;;1.00;;
13067;SDS011;6600;51.362;6.686;2023-08-06T04:32:40;0.80;;;0.80;;
13067;SDS011;6600;51.362;6.686;2023-08-06T04:35:06;1.13;;;1.07;;
13067;SDS011;6600;51.362;6.686;2023-08-06T04:37:31;1.30;;;1.13;;
13067;SDS011;6600;51.362;6.686;2023-08-06T04:39:56;1.67;;;0.90;;
13067;SDS011;6600;51.362;6.686;2023-08-06T04:42:22;0.90;;;0.90;;
13067;SDS011;6600;51.362;6.686;2023-08-06T04:44:47;1.90;;;0.90;;
13067;SDS011;6600;51.362;6.686;2023-08-06T04:47:12;2.20;;;1.17;;
13067;SDS011;6600;51.362;6.686;2023-08-06T04:49:38;1.03;;;0.80;;
13067;SDS011;6600;51.362;6.686;2023-08-06T04:52:03;1.00;;;0.70;;
13067;SDS011;6600;51.362;6.686;2023-08-06T04:54:29;0.83;;;0.83;;
13067;SDS011;6600;51.362;6.686;2023-08-06T04:56:54;0.80;;;0.77;;
13067;SDS011;6600;51.362;6.686;2023-08-06T04:59:19;1.33;;;1.00;;
13067;SDS011;6600;51.362;6.686;2023-08-06T05:01:45;1.20;;;1.10;;
13067;SDS011;6600;51.362;6.686;2023-08-06T05:04:10;1.33;;;1.20;;
13067;SDS011;6600;51.362;6.686;2023-08-06T05:06:35;1.60;;;1.30;;
13067;SDS011;6600;51.362;6.686;2023-08-06T05:09:03;1.77;;;1.00;;
13067;SDS011;6600;51.362;6.686;2023-08-06T05:11:29;1.40;;;1.10;;
13067;SDS011;6600;51.362;6.686;2023-08-06T05:13:54;1.87;;;1.30;;
13067;SDS011;6600;51.362;6.686;2023-08-06T05:16:20;1.60;;;0.97;;
13067;SDS011;6600;51.362;6.686;2023-08-06T05:18:45;1.80;;;1.03;;
13067;SDS011;6600;51.362;6.686;2023-08-06T05:21:10;1.13;;;1.10;;
13067;SDS011;6600;51.362;6.686;2023-08-06T05:23:36;2.33;;;1.20;;
13067;SDS011;6600;51.362;6.686;2023-08-06T05:26:01;1.40;;;1.10;;
13067;SDS011;6600;51.362;6.686;2023-08-06T05:28:26;1.57;;;0.90;;
13067;SDS011;6600;51.362;6.686;2023-08-06T05:30:52;1.80;;;1.00;;
13067;SDS011;6600;51.362;6.686;2023-08-06T05:33:17;1.83;;;1.33;;
13067;SDS011;6600;51.362;6.686;2023-08-06T05:35:42;4.60;;;1.30;;
13067;SDS011;6600;51.362;6.686;2023-08-06T05:38:08;2.00;;;1.17;;
13067;SDS011;6600;51.362;6.686;2023-08-06T05:40:33;1.93;;;1.00;;
13067;SDS011;6600;51.362;6.686;2023-08-06T05:42:59;2.17;;;1.20;;
13067;SDS011;6600;51.362;6.686;2023-08-06T05:45:25;1.20;;;1.10;;
13067;SDS011;6600;51.362;6.686;2023-08-06T05:47:50;1.40;;;1.07;;
13067;SDS011;6600;51.362;6.686;2023-08-06T05:50:15;1.43;;;1.30;;
13067;SDS011;6600;51.362;6.686;2023-08-06T05:52:41;2.33;;;1.33;;
13067;SDS011;6600;51.362;6.686;2023-08-06T05:55:06;1.70;;;1.30;;
13067;SDS011;6600;51.362;6.686;2023-08-06T05:57:32;2.47;;;1.67;;
13067;SDS011;6600;51.362;6.686;2023-08-06T05:59:57;0.87;;;0.87;;
13067;SDS011;6600;51.362;6.686;2023-08-06T06:02:23;2.40;;;1.27;;
13067;SDS011;6600;51.362;6.686;2023-08-06T06:04:48;2.23;;;1.30;;
13067;SDS011;6600;51.362;6.686;2023-08-06T06:07:13;2.60;;;1.67;;
13067;SDS011;6600;51.362;6.686;2023-08-06T06:09:39;2.60;;;1.70;;
13067;SDS011;6600;51.362;6.686;2023-08-06T06:12:05;1.60;;;1.50;;
13067;SDS011;6600;51.362;6.686;2023-08-06T06:14:31;1.47;;;1.33;;
13067;SDS011;6600;51.362;6.686;2023-08-06T06:16:56;1.60;;;1.40;;
13067;SDS011;6600;51.362;6.686;2023-08-06T06:19:22;2.33;;;1.47;;
13067;SDS011;6600;51.362;6.686;2023-08-06T06:21:47;1.30;;;1.20;;
13067;SDS011;6600;51.362;6.686;2023-08-06T06:24:12;2.23;;;1.70;;
13067;SDS011;6600;51.362;6.686;2023-08-06T06:26:38;3.07;;;1.60;;
13067;SDS011;6600;51.362;6.686;2023-08-06T06:29:04;1.60;;;1.50;;
13067;SDS011;6600;51.362;6.686;2023-08-06T06:31:29;2.43;;;1.60;;
13067;SDS011;6600;51.362;6.686;2023-08-06T06:33:55;1.60;;;1.50;;
13067;SDS011;6600;51.362;6.686;2023-08-06T06:36:20;3.03;;;1.50;;
13067;SDS011;6600;51.362;6.686;2023-08-06T06:38:45;2.50;;;1.80;;
13067;SDS011;6600;51.362;6.686;2023-08-06T06:41:11;1.70;;;1.40;;
13067;SDS011;6600;51.362;6.686;2023-08-06T06:43:36;3.00;;;2.27;;
13067;SDS011;6600;51.362;6.686;2023-08-06T06:46:03;4.50;;;1.70;;
13067;SDS011;6600;51.362;6.686;2023-08-06T06:48:29;1.20;;;1.10;;
13067;SDS011;6600;51.362;6.686;2023-08-06T06:50:55;1.23;;;0.87;;
13067;SDS011;6600;51.362;6.686;2023-08-06T06:53:21;0.97;;;0.90;;
13067;SDS011;6600;51.362;6.686;2023-08-06T06:55:52;1.17;;;1.00;;
13067;SDS011;6600;51.362;6.686;2023-08-06T06:58:18;2.00;;;0.80;;
13067;SDS011;6600;51.362;6.686;2023-08-06T07:00:43;0.93;;;0.73;;
13067;SDS011;6600;51.362;6.686;2023-08-06T07:03:08;1.03;;;1.00;;
13067;SDS011;6600;51.362;6.686;2023-08-06T07:05:33;0.60;;;0.60;;
13067;SDS011;6600;51.362;6.686;2023-08-06T07:07:59;1.00;;;0.90;;
13067;SDS011;6600;51.362;6.686;2023-08-06T07:10:25;0.93;;;0.63;;
13067;SDS011;6600;51.362;6.686;2023-08-06T07:12:51;0.70;;;0.70;;
13067;SDS011;6600;51.362;6.686;2023-08-06T07:15:16;1.27;;;1.00;;
13067;SDS011;6600;51.362;6.686;2023-08-06T07:17:42;1.03;;;0.90;;
13067;SDS011;6600;51.362;6.686;2023-08-06T07:20:08;1.67;;;0.77;;
13067;SDS011;6600;51.362;6.686;2023-08-06T07:22:33;0.93;;;0.90;;
13067;SDS011;6600;51.362;6.686;2023-08-06T07:24:59;0.70;;;0.70;;
13067;SDS011;6600;51.362;6.686;2023-08-06T07:27:25;0.83;;;0.83;;
13067;SDS011;6600;51.362;6.686;2023-08-06T07:29:50;0.50;;;0.50;;
13067;SDS011;6600;51.362;6.686;2023-08-06T07:32:15;0.70;;;0.70;;
13067;SDS011;6600;51.362;6.686;2023-08-06T07:34:41;1.07;;;0.83;;
13067;SDS011;6600;51.362;6.686;2023-08-06T07:37:06;0.57;;;0.57;;
13067;SDS011;6600;51.362;6.686;2023-08-06T07:39:32;0.80;;;0.80;;
13067;SDS011;6600;51.362;6.686;2023-08-06T07:41:57;0.70;;;0.70;;
13067;SDS011;6600;51.362;6.686;2023-08-06T07:44:22;0.60;;;0.60;;
13067;SDS011;6600;51.362;6.686;2023-08-06T07:46:48;0.60;;;0.60;;
13067;SDS011;6600;51.362;6.686;2023-08-06T07:49:14;0.60;;;0.57;;
13067;SDS011;6600;51.362;6.686;2023-08-06T07:51:39;1.10;;;1.00;;
13067;SDS011;6600;51.362;6.686;2023-08-06T07:54:05;0.83;;;0.77;;
13067;SDS011;6600;51.362;6.686;2023-08-06T07:56:31;0.70;;;0.70;;
13067;SDS011;6600;51.362;6.686;2023-08-06T07:58:56;0.90;;;0.70;;
13067;SDS011;6600;51.362;6.686;2023-08-06T08:01:22;0.63;;;0.63;;
13067;SDS011;6600;51.362;6.686;2023-08-06T08:03:47;1.23;;;0.97;;
13067;SDS011;6600;51.362;6.686;2023-08-06T08:06:12;0.90;;;0.90;;
13067;SDS011;6600;51.362;6.686;2023-08-06T08:08:38;1.47;;;1.00;;
13067;SDS011;6600;51.362;6.686;2023-08-06T08:11:04;1.20;;;1.10;;
13067;SDS011;6600;51.362;6.686;2023-08-06T08:13:29;0.80;;;0.80;;
13067;SDS011;6600;51.362;6.686;2023-08-06T08:15:58;1.10;;;1.00;;
13067;SDS011;6600;51.362;6.686;2023-08-06T08:18:24;1.17;;;1.13;;
13067;SDS011;6600;51.362;6.686;2023-08-06T08:20:49;1.37;;;1.10;;
13067;SDS011;6600;51.362;6.686;2023-08-06T08:23:15;1.80;;;1.40;;
13067;SDS011;6600;51.362;6.686;2023-08-06T08:25:40;1.70;;;1.40;;
13067;SDS011;6600;51.362;6.686;2023-08-06T08:28:05;1.30;;;1.30;;
13067;SDS011;6600;51.362;6.686;2023-08-06T08:30:32;1.77;;;1.43;;
13067;SDS011;6600;51.362;6.686;2023-08-06T08:32:57;1.37;;;1.27;;
13067;SDS011;6600;51.362;6.686;2023-08-06T08:35:23;2.57;;;1.53;;
13067;SDS011;6600;51.362;6.686;2023-08-06T08:37:48;2.37;;;1.37;;
13067;SDS011;6600;51.362;6.686;2023-08-06T08:40:14;1.00;;;1.00;;
13067;SDS011;6600;51.362;6.686;2023-08-06T08:42:40;0.90;;;0.90;;
13067;SDS011;6600;51.362;6.686;2023-08-06T08:45:06;1.10;;;1.00;;
13067;SDS011;6600;51.362;6.686;2023-08-06T08:47:38;1.10;;;1.00;;
13067;SDS011;6600;51.362;6.686;2023-08-06T08:50:06;1.23;;;1.17;;
13067;SDS011;6600;51.362;6.686;2023-08-06T08:52:33;0.97;;;0.97;;
13067;SDS011;6600;51.362;6.686;2023-08-06T08:54:59;1.23;;;1.10;;
13067;SDS011;6600;51.362;6.686;2023-08-06T08:57:26;1.00;;;1.00;;
13067;SDS011;6600;51.362;6.686;2023-08-06T08:59:51;2.10;;;1.73;;
13067;SDS011;6600;51.362;6.686;2023-08-06T09:02:17;3.53;;;1.57;;
13067;SDS011;6600;51.362;6.686;2023-08-06T09:04:45;1.50;;;1.20;;
13067;SDS011;6600;51.362;6.686;2023-08-06T09:07:13;2.27;;;1.07;;
13067;SDS011;6600;51.362;6.686;2023-08-06T09:09:42;1.53;;;1.20;;
13067;SDS011;6600;51.362;6.686;2023-08-06T09:12:12;0.80;;;0.80;;
13067;SDS011;6600;51.362;6.686;2023-08-06T09:14:40;1.00;;;1.00;;
13067;SDS011;6600;51.362;6.686;2023-08-06T09:17:05;0.70;;;0.57;;
13067;SDS011;6600;51.362;6.686;2023-08-06T09:19:31;0.93;;;0.93;;
13067;SDS011;6600;51.362;6.686;2023-08-06T09:21:59;2.30;;;0.80;;
13067;SDS011;6600;51.362;6.686;2023-08-06T09:24:24;1.37;;;0.60;;
13067;SDS011;6600;51.362;6.686;2023-08-06T09:26:51;1.03;;;0.93;;
13067;SDS011;6600;51.362;6.686;2023-08-06T09:29:17;1.87;;;0.90;;
13067;SDS011;6600;51.362;6.686;2023-08-06T09:31:43;1.83;;;0.90;;
13067;SDS011;6600;51.362;6.686;2023-08-06T09:34:19;3.53;;;0.87;;
13067;SDS011;6600;51.362;6.686;2023-08-06T09:36:47;0.60;;;0.60;;
13067;SDS011;6600;51.362;6.686;2023-08-06T09:39:15;0.77;;;0.70;;
13067;SDS011;6600;51.362;6.686;2023-08-06T09:41:42;0.73;;;0.70;;
13067;SDS011;6600;51.362;6.686;2023-08-06T09:44:15;1.00;;;1.00;;
13067;SDS011;6600;51.362;6.686;2023-08-06T09:46:57;1.03;;;0.80;;
13067;SDS011;6600;51.362;6.686;2023-08-06T09:49:27;1.17;;;1.07;;
13067;SDS011;6600;51.362;6.686;2023-08-06T09:52:05;1.47;;;1.10;;
13067;SDS011;6600;51.362;6.686;2023-08-06T09:54:31;0.90;;;0.90;;
13067;SDS011;6600;51.362;6.686;2023-08-06T09:56:58;2.33;;;1.20;;
13067;SDS011;6600;51.362;6.686;2023-08-06T09:59:24;1.37;;;1.27;;
13067;SDS011;6600;51.362;6.686;2023-08-06T10:01:50;2.43;;;1.70;;
13067;SDS011;6600;51.362;6.686;2023-08-06T10:04:16;1.20;;;1.10;;
13067;SDS011;6600;51.362;6.686;2023-08-06T10:06:42;2.00;;;1.43;;
13067;SDS011;6600;51.362;6.686;2023-08-06T10:09:11;2.20;;;1.70;;
13067;SDS011;6600;51.362;6.686;2023-08-06T10:11:37;2.53;;;1.50;;
13067;SDS011;6600;51.362;6.686;2023-08-06T10:14:12;1.70;;;1.20;;
13067;SDS011;6600;51.362;6.686;2023-08-06T10:16:40;0.93;;;0.87;;
13067;SDS011;6600;51.362;6.686;2023-08-06T10:19:07;0.87;;;0.87;;
13067;SDS011;6600;51.362;6.686;2023-08-06T10:21:34;0.70;;;0.70;;
13067;SDS011;6600;51.362;6.686;2023-08-06T10:24:00;0.80;;;0.80;;
13067;SDS011;6600;51.362;6.686;2023-08-06T10:26:27;0.80;;;0.80;;
13067;SDS011;6600;51.362;6.686;2023-08-06T10:28:53;2.37;;;1.07;;
13067;SDS011;6600;51.362;6.686;2023-08-06T10:31:19;1.00;;;0.90;;
13067;SDS011;6600;51.362;6.686;2023-08-06T10:33:45;0.90;;;0.90;;
13067;SDS011;6600;51.362;6.686;2023-08-06T10:36:12;0.37;;;0.37;;
13067;SDS011;6600;51.362;6.686;2023-08-06T10:38:44;0.73;;;0.67;;
13067;SDS011;6600;51.362;6.686;2023-08-06T10:41:29;0.67;;;0.50;;
13067;SDS011;6600;51.362;6.686;2023-08-06T10:44:13;0.90;;;0.30;;
13067;SDS011;6600;51.362;6.686;2023-08-06T10:46:38;0.30;;;0.30;;
13067;SDS011;6600;51.362;6.686;2023-08-06T10:49:04;0.50;;;0.50;;
13067;SDS011;6600;51.362;6.686;2023-08-06T10:51:30;0.27;;;0.27;;
13067;SDS011;6600;51.362;6.686;2023-08-06T10:53:55;0.43;;;0.43;;
13067;SDS011;6600;51.362;6.686;2023-08-06T10:56:23;0.60;;;0.40;;
13067;SDS011;6600;51.362;6.686;2023-08-06T10:58:50;0.90;;;0.50;;
13067;SDS011;6600;51.362;6.686;2023-08-06T11:01:17;0.80;;;0.37;;
13067;SDS011;6600;51.362;6.686;2023-08-06T11:03:43;0.70;;;0.60;;
13067;SDS011;6600;51.362;6.686;2023-08-06T11:06:09;0.57;;;0.57;;
13067;SDS011;6600;51.362;6.686;2023-08-06T11:08:36;0.40;;;0.40;;
13067;SDS011;6600;51.362;6.686;2023-08-06T11:13:42;0.70;;;0.70;;
13067;SDS011;6600;51.362;6.686;2023-08-06T11:16:08;2.10;;;0.50;;
13067;SDS011;6600;51.362;6.686;2023-08-06T11:18:34;0.60;;;0.60;;
13067;SDS011;6600;51.362;6.686;2023-08-06T11:21:00;1.70;;;0.93;;
13067;SDS011;6600;51.362;6.686;2023-08-06T11:23:26;1.27;;;1.03;;
13067;SDS011;6600;51.362;6.686;2023-08-06T11:25:53;0.83;;;0.73;;
13067;SDS011;6600;51.362;6.686;2023-08-06T11:28:19;1.37;;;1.13;;
13067;SDS011;6600;51.362;6.686;2023-08-06T11:30:46;1.00;;;0.90;;
13067;SDS011;6600;51.362;6.686;2023-08-06T11:33:12;1.23;;;0.90;;
13067;SDS011;6600;51.362;6.686;2023-08-06T11:35:37;1.30;;;1.00;;
13067;SDS011;6600;51.362;6.686;2023-08-06T11:38:03;1.00;;;0.90;;
13067;SDS011;6600;51.362;6.686;2023-08-06T11:40:28;1.10;;;1.00;;
13067;SDS011;6600;51.362;6.686;2023-08-06T11:42:54;1.60;;;0.87;;
13067;SDS011;6600;51.362;6.686;2023-08-06T11:45:22;1.10;;;1.00;;
13067;SDS011;6600;51.362;6.686;2023-08-06T11:47:50;0.70;;;0.67;;
13067;SDS011;6600;51.362;6.686;2023-08-06T11:50:24;1.00;;;0.90;;
13067;SDS011;6600;51.362;6.686;2023-08-06T11:52:52;1.10;;;1.00;;
13067;SDS011;6600;51.362;6.686;2023-08-06T11:55:25;2.00;;;1.30;;
13067;SDS011;6600;51.362;6.686;2023-08-06T11:57:53;1.20;;;1.10;;
13067;SDS011;6600;51.362;6.686;2023-08-06T12:00:19;1.07;;;0.90;;
13067;SDS011;6600;51.362;6.686;2023-08-06T12:02:47;2.17;;;1.07;;
13067;SDS011;6600;51.362;6.686;2023-08-06T12:07:48;1.00;;;0.60;;
13067;SDS011;6600;51.362;6.686;2023-08-06T12:10:17;1.13;;;1.03;;
13067;SDS011;6600;51.362;6.686;2023-08-06T12:12:46;1.07;;;0.97;;
13067;SDS011;6600;51.362;6.686;2023-08-06T12:15:12;0.77;;;0.77;;
13067;SDS011;6600;51.362;6.686;2023-08-06T12:17:37;0.77;;;0.77;;
13067;SDS011;6600;51.362;6.686;2023-08-06T12:20:04;1.67;;;0.90;;
13067;SDS011;6600;51.362;6.686;2023-08-06T12:22:31;1.20;;;1.03;;
13067;SDS011;6600;51.362;6.686;2023-08-06T12:25:00;1.70;;;0.90;;
13067;SDS011;6600;51.362;6.686;2023-08-06T12:27:27;1.17;;;1.07;;
13067;SDS011;6600;51.362;6.686;2023-08-06T12:29:52;2.63;;;0.73;;
13067;SDS011;6600;51.362;6.686;2023-08-06T12:32:17;1.00;;;0.70;;
13067;SDS011;6600;51.362;6.686;2023-08-06T12:34:44;0.73;;;0.63;;
13067;SDS011;6600;51.362;6.686;2023-08-06T12:37:09;1.13;;;1.00;;
13067;SDS011;6600;51.362;6.686;2023-08-06T12:39:37;1.93;;;0.83;;
13067;SDS011;6600;51.362;6.686;2023-08-06T12:42:04;1.20;;;1.10;;
13067;SDS011;6600;51.362;6.686;2023-08-06T12:44:30;1.50;;;1.37;;
13067;SDS011;6600;51.362;6.686;2023-08-06T12:46:56;2.10;;;1.10;;
13067;SDS011;6600;51.362;6.686;2023-08-06T12:49:22;1.27;;;1.17;;
13067;SDS011;6600;51.362;6.686;2023-08-06T12:51:49;1.00;;;0.93;;
13067;SDS011;6600;51.362;6.686;2023-08-06T12:54:16;1.20;;;1.10;;
13067;SDS011;6600;51.362;6.686;2023-08-06T12:56:42;0.90;;;0.80;;
13067;SDS011;6600;51.362;6.686;2023-08-06T12:59:08;0.83;;;0.73;;
13067;SDS011;6600;51.362;6.686;2023-08-06T13:01:34;1.23;;;1.10;;
13067;SDS011;6600;51.362;6.686;2023-08-06T13:03:59;1.03;;;0.83;;
13067;SDS011;6600;51.362;6.686;2023-08-06T13:06:24;1.17;;;1.00;;
13067;SDS011;6600;51.362;6.686;2023-08-06T13:08:50;0.70;;;0.70;;
13067;SDS011;6600;51.362;6.686;2023-08-06T13:11:15;0.70;;;0.70;;
13067;SDS011;6600;51.362;6.686;2023-08-06T13:13:40;0.73;;;0.73;;
13067;SDS011;6600;51.362;6.686;2023-08-06T13:16:06;2.00;;;0.80;;
13067;SDS011;6600;51.362;6.686;2023-08-06T13:18:31;0.80;;;0.70;;
13067;SDS011;6600;51.362;6.686;2023-08-06T13:20:56;0.80;;;0.63;;
13067;SDS011;6600;51.362;6.686;2023-08-06T13:23:22;2.07;;;0.97;;
13067;SDS011;6600;51.362;6.686;2023-08-06T13:25:47;2.00;;;1.03;;
13067;SDS011;6600;51.362;6.686;2023-08-06T13:28:12;0.60;;;0.60;;
13067;SDS011;6600;51.362;6.686;2023-08-06T13:30:39;0.70;;;0.70;;
13067;SDS011;6600;51.362;6.686;2023-08-06T13:33:09;0.60;;;0.60;;
13067;SDS011;6600;51.362;6.686;2023-08-06T13:35:36;0.70;;;0.70;;
13067;SDS011;6600;51.362;6.686;2023-08-06T13:38:01;4.53;;;0.90;;
13067;SDS011;6600;51.362;6.686;2023-08-06T13:40:30;0.90;;;0.80;;
13067;SDS011;6600;51.362;6.686;2023-08-06T13:42:57;0.70;;;0.67;;
13067;SDS011;6600;51.362;6.686;2023-08-06T13:45:22;0.60;;;0.60;;
13067;SDS011;6600;51.362;6.686;2023-08-06T13:47:48;1.17;;;1.07;;
13067;SDS011;6600;51.362;6.686;2023-08-06T13:50:13;1.27;;;1.20;;
13067;SDS011;6600;51.362;6.686;2023-08-06T13:52:39;1.70;;;0.70;;
13067;SDS011;6600;51.362;6.686;2023-08-06T13:55:04;2.00;;;1.17;;
13067;SDS011;6600;51.362;6.686;2023-08-06T13:57:30;0.93;;;0.67;;
13067;SDS011;6600;51.362;6.686;2023-08-06T13:59:55;0.60;;;0.57;;
13067;SDS011;6600;51.362;6.686;2023-08-06T14:02:22;1.27;;;1.00;;
13067;SDS011;6600;51.362;6.686;2023-08-06T14:04:47;1.43;;;0.80;;
13067;SDS011;6600;51.362;6.686;2023-08-06T14:07:13;1.13;;;1.03;;
13067;SDS011;6600;51.362;6.686;2023-08-06T14:09:38;0.97;;;0.50;;
13067;SDS011;6600;51.362;6.686;2023-08-06T14:12:05;1.73;;;0.93;;
13067;SDS011;6600;51.362;6.686;2023-08-06T14:14:30;1.17;;;1.07;;
13067;SDS011;6600;51.362;6.686;2023-08-06T14:16:56;1.07;;;0.73;;
13067;SDS011;6600;51.362;6.686;2023-08-06T14:19:21;0.73;;;0.63;;
13067;SDS011;6600;51.362;6.686;2023-08-06T14:21:47;1.47;;;0.93;;
13067;SDS011;6600;51.362;6.686;2023-08-06T14:24:12;1.33;;;0.90;;
13067;SDS011;6600;51.362;6.686;2023-08-06T14:26:38;1.20;;;1.07;;
13067;SDS011;6600;51.362;6.686;2023-08-06T14:29:03;0.60;;;0.60;;
13067;SDS011;6600;51.362;6.686;2023-08-06T14:31:28;1.50;;;1.10;;
13067;SDS011;6600;51.362;6.686;2023-08-06T14:33:54;1.10;;;0.80;;
13067;SDS011;6600;51.362;6.686;2023-08-06T14:36:19;2.83;;;1.23;;
13067;SDS011;6600;51.362;6.686;2023-08-06T14:38:45;1.87;;;0.70;;
13067;SDS011;6600;51.362;6.686;2023-08-06T14:41:10;1.00;;;0.60;;
13067;SDS011;6600;51.362;6.686;2023-08-06T14:43:36;3.03;;;0.90;;
13067;SDS011;6600;51.362;6.686;2023-08-06T14:46:01;1.00;;;0.90;;
13067;SDS011;6600;51.362;6.686;2023-08-06T14:48:27;1.67;;;1.03;;
13067;SDS011;6600;51.362;6.686;2023-08-06T14:50:53;1.67;;;1.30;;
13067;SDS011;6600;51.362;6.686;2023-08-06T14:53:19;1.10;;;0.93;;
13067;SDS011;6600;51.362;6.686;2023-08-06T14:55:44;1.13;;;0.87;;
13067;SDS011;6600;51.362;6.686;2023-08-06T14:58:09;1.83;;;1.57;;
13067;SDS011;6600;51.362;6.686;2023-08-06T15:00:35;1.67;;;1.00;;
13067;SDS011;6600;51.362;6.686;2023-08-06T15:03:00;0.97;;;0.93;;